CSHVD LPCS-LPCS

Flight info

Callsign CSHVD
Flight time 0h 4m
Altitude 1500
Route CCAIS CIRCUITS
Aircraft R44/L-VGD/C

Departure

Time 2026-05-07 14:32
Airport Cascais Airport (LPCS)

Arrival

Time 2026-05-07 14:36
Airport Cascais Airport (LPCS)
Time Latitude Longitude Altitude Speed Heading
2026-05-07 14:11 38.72301 -9.35779 312 ft 0 kts 87°
2026-05-07 14:28 38.72301 -9.35780 312 ft 0 kts 93°
2026-05-07 14:28 38.72300 -9.35779 315 ft 1 kts 122°
2026-05-07 14:29 38.72297 -9.35770 320 ft 3 kts 94°
2026-05-07 14:29 38.72292 -9.35741 324 ft 3 kts 78°
2026-05-07 14:29 38.72302 -9.35707 323 ft 3 kts 75°
2026-05-07 14:29 38.72309 -9.35683 323 ft 5 kts 82°
2026-05-07 14:30 38.72314 -9.35636 323 ft 3 kts 75°
2026-05-07 14:30 38.72331 -9.35589 327 ft 8 kts 82°
2026-05-07 14:30 38.72340 -9.35547 328 ft 3 kts 79°
2026-05-07 14:30 38.72345 -9.35516 327 ft 5 kts 83°
2026-05-07 14:31 38.72360 -9.35469 332 ft 6 kts
2026-05-07 14:31 38.72523 -9.35517 387 ft 48 kts 341°
2026-05-07 14:31 38.72917 -9.35671 544 ft 66 kts 340°
2026-05-07 14:31 38.73323 -9.35829 826 ft 57 kts 344°
2026-05-07 14:32 38.73680 -9.35923 1088 ft 56 kts 347°
2026-05-07 14:32 38.74132 -9.36054 1187 ft 74 kts 339°
2026-05-07 14:32 38.74673 -9.36136 1268 ft 88 kts
2026-05-07 14:32 38.74955 -9.35404 1238 ft 107 kts 95°
2026-05-07 14:33 38.74501 -9.34758 1354 ft 91 kts 154°
2026-05-07 14:33 38.73905 -9.34510 1448 ft 92 kts 168°
2026-05-07 14:33 38.73274 -9.34293 1469 ft 96 kts 165°
2026-05-07 14:33 38.72611 -9.34070 1453 ft 98 kts 169°
2026-05-07 14:34 38.71984 -9.33852 1513 ft 91 kts 170°
2026-05-07 14:34 38.71332 -9.33669 1480 ft 98 kts 169°
2026-05-07 14:34 38.70669 -9.33610 1451 ft 91 kts 202°
2026-05-07 14:34 38.70356 -9.34178 1462 ft 79 kts 263°
2026-05-07 14:35 38.70367 -9.34869 1438 ft 77 kts 285°
2026-05-07 14:35 38.70710 -9.35372 1198 ft 79 kts 327°
2026-05-07 14:35 38.71233 -9.35372 890 ft 71 kts 15°
2026-05-07 14:35 38.71626 -9.35212 642 ft 52 kts 345°
2026-05-07 14:36 38.71924 -9.35300 397 ft 35 kts 335°
2026-05-07 14:36 38.72013 -9.35332 310 ft 0 kts 341°
2026-05-07 14:36 38.72012 -9.35332 310 ft 0 kts 342°
2026-05-07 14:37 38.72025 -9.35339 318 ft 6 kts 352°
2026-05-07 14:37 38.72250 -9.35420 382 ft 31 kts 333°
2026-05-07 14:37 38.72529 -9.35516 438 ft 52 kts 339°
2026-05-07 14:38 38.72916 -9.35670 521 ft 62 kts 334°
2026-05-07 14:38 38.73346 -9.35814 656 ft 61 kts 345°
2026-05-07 14:38 38.73754 -9.35894 840 ft 60 kts 346°
2026-05-07 14:38 38.74152 -9.35971 1058 ft 59 kts 351°
2026-05-07 14:39 38.74589 -9.36068 1183 ft 69 kts 339°
2026-05-07 14:39 38.74974 -9.35656 1218 ft 91 kts 80°
2026-05-07 14:39 38.74724 -9.34963 1339 ft 84 kts 142°
2026-05-07 14:39 38.74206 -9.34657 1489 ft 82 kts 163°
2026-05-07 14:40 38.73628 -9.34399 1531 ft 90 kts 166°
2026-05-07 14:40 38.72989 -9.34126 1448 ft 104 kts 161°
2026-05-07 14:40 38.72315 -9.33823 1439 ft 102 kts 166°
2026-05-07 14:40 38.71658 -9.33580 1504 ft 95 kts 167°
2026-05-07 14:41 38.71007 -9.33310 1459 ft 99 kts 162°
2026-05-07 14:41 38.70337 -9.33058 1391 ft 103 kts 167°
2026-05-07 14:41 38.69643 -9.32803 1328 ft 104 kts 165°
2026-05-07 14:41 38.68958 -9.32577 1327 ft 94 kts 183°
2026-05-07 14:42 38.68463 -9.32962 1346 ft 82 kts 240°
2026-05-07 14:42 38.68372 -9.33651 1315 ft 80 kts 277°
2026-05-07 14:42 38.68739 -9.34123 1303 ft 81 kts 340°
2026-05-07 14:42 38.69233 -9.34270 1382 ft 72 kts 340°
2026-05-07 14:43 38.69726 -9.34471 1251 ft 78 kts 336°
2026-05-07 14:43 38.70233 -9.34685 1103 ft 76 kts 340°
2026-05-07 14:43 38.70680 -9.34838 827 ft 57 kts 345°
2026-05-07 14:43 38.70998 -9.34930 555 ft 47 kts 346°
2026-05-07 14:44 38.71256 -9.35028 481 ft 36 kts 347°
2026-05-07 14:44 38.71479 -9.35129 469 ft 33 kts 349°
2026-05-07 14:44 38.71737 -9.35223 442 ft 45 kts 343°
2026-05-07 14:44 38.72070 -9.35365 386 ft 52 kts 347°
2026-05-07 14:45 38.72436 -9.35480 364 ft 54 kts 342°
2026-05-07 14:45 38.72766 -9.35599 404 ft 44 kts 342°
2026-05-07 14:45 38.73025 -9.35690 434 ft 34 kts 350°
2026-05-07 14:45 38.73266 -9.35777 506 ft 39 kts 335°
2026-05-07 14:46 38.73573 -9.35892 720 ft 50 kts 343°
2026-05-07 14:46 38.73959 -9.35987 954 ft 63 kts 351°
2026-05-07 14:46 38.74432 -9.36085 1093 ft 74 kts 346°
2026-05-07 14:46 38.74980 -9.36167 1161 ft 85 kts 355°
2026-05-07 14:47 38.75479 -9.35815 1299 ft 86 kts 57°
2026-05-07 14:47 38.75443 -9.35045 1372 ft 90 kts 118°
2026-05-07 14:47 38.74878 -9.34657 1339 ft 98 kts 174°
2026-05-07 14:47 38.74207 -9.34551 1402 ft 93 kts 178°
2026-05-07 14:48 38.73572 -9.34453 1451 ft 97 kts 174°
2026-05-07 14:48 38.72909 -9.34202 1463 ft 98 kts 166°
2026-05-07 14:48 38.72256 -9.33970 1509 ft 96 kts 168°
2026-05-07 14:48 38.71596 -9.33693 1471 ft 102 kts 158°
2026-05-07 14:49 38.70948 -9.33318 1456 ft 103 kts 159°
2026-05-07 14:49 38.70273 -9.32919 1349 ft 111 kts 159°
2026-05-07 14:49 38.69574 -9.32546 1311 ft 107 kts 158°
2026-05-07 14:49 38.68923 -9.32188 1428 ft 91 kts 168°
2026-05-07 14:50 38.68319 -9.32126 1531 ft 84 kts 188°
2026-05-07 14:50 38.67909 -9.32511 1654 ft 71 kts 259°
2026-05-07 14:50 38.68080 -9.33169 1570 ft 87 kts 298°
2026-05-07 14:50 38.68394 -9.33890 1282 ft 99 kts 298°
2026-05-07 14:51 38.68966 -9.34179 1232 ft 82 kts 348°
2026-05-07 14:51 38.69502 -9.34305 1249 ft 81 kts 336°
2026-05-07 14:51 38.70047 -9.34590 1037 ft 93 kts 337°
2026-05-07 14:51 38.70652 -9.34827 868 ft 88 kts 339°
2026-05-07 14:52 38.71216 -9.35036 608 ft 69 kts 342°
2026-05-07 14:52 38.71581 -9.35179 437 ft 44 kts 344°
2026-05-07 14:52 38.71822 -9.35266 350 ft 33 kts 349°
2026-05-07 14:52 38.71959 -9.35309 323 ft 8 kts 312°
2026-05-07 14:53 38.72026 -9.35333 340 ft 5 kts 327°
2026-05-07 14:53 38.72101 -9.35361 373 ft 16 kts 308°
2026-05-07 14:53 38.72182 -9.35387 329 ft 8 kts 296°
2026-05-07 14:53 38.72204 -9.35395 339 ft 12 kts 305°
2026-05-07 14:54 38.72308 -9.35446 350 ft 17 kts 322°
2026-05-07 14:54 38.72407 -9.35469 334 ft 11 kts 285°
2026-05-07 14:54 38.72481 -9.35490 340 ft 12 kts 282°
2026-05-07 14:54 38.72574 -9.35525 362 ft 16 kts 291°
2026-05-07 14:55 38.72729 -9.35595 360 ft 29 kts 319°
2026-05-07 14:55 38.72971 -9.35675 402 ft 46 kts 342°
2026-05-07 14:55 38.73307 -9.35764 601 ft 50 kts 346°
2026-05-07 14:55 38.73629 -9.35847 874 ft 46 kts 348°
2026-05-07 14:56 38.73980 -9.35920 1018 ft 64 kts 342°
2026-05-07 14:56 38.74460 -9.36090 1114 ft 75 kts 342°
2026-05-07 14:56 38.74947 -9.35913 1246 ft 86 kts 58°
2026-05-07 14:56 38.74736 -9.35184 1277 ft 95 kts 146°
2026-05-07 14:57 38.74132 -9.34843 1333 ft 95 kts 164°
2026-05-07 14:57 38.73499 -9.34583 1418 ft 96 kts 167°
2026-05-07 14:57 38.72849 -9.34275 1430 ft 104 kts 157°
2026-05-07 14:57 38.72145 -9.33954 1338 ft 112 kts 167°
2026-05-07 14:58 38.71412 -9.33639 1279 ft 111 kts 162°
2026-05-07 14:58 38.70702 -9.33264 1211 ft 109 kts 159°
2026-05-07 14:58 38.70027 -9.32919 1204 ft 104 kts 162°
2026-05-07 14:58 38.69344 -9.32589 1144 ft 106 kts 163°
2026-05-07 14:59 38.68660 -9.32382 1169 ft 95 kts 193°
2026-05-07 14:59 38.68343 -9.32940 1232 ft 81 kts 283°
2026-05-07 14:59 38.68733 -9.33431 1229 ft 87 kts 318°
2026-05-07 14:59 38.69196 -9.34041 1010 ft 103 kts 315°
2026-05-07 15:00 38.69791 -9.34511 992 ft 96 kts 332°
2026-05-07 15:00 38.70429 -9.34739 904 ft 93 kts 343°
2026-05-07 15:00 38.71007 -9.34938 687 ft 92 kts 330°
2026-05-07 15:00 38.71568 -9.35175 524 ft 71 kts 337°
2026-05-07 15:01 38.71905 -9.35290 461 ft 35 kts 337°
2026-05-07 15:01 38.72062 -9.35347 389 ft 15 kts 347°
2026-05-07 15:01 38.72153 -9.35380 336 ft 13 kts 349°
2026-05-07 15:01 38.72192 -9.35397 327 ft 1 kts 346°
2026-05-07 15:02 38.72228 -9.35407 342 ft 13 kts 355°
2026-05-07 15:02 38.72322 -9.35446 330 ft 11 kts 359°
2026-05-07 15:02 38.72349 -9.35499 332 ft 6 kts 273°
2026-05-07 15:02 38.72344 -9.35530 325 ft 2 kts 259°
2026-05-07 15:03 38.72368 -9.35581 352 ft 9 kts 351°
2026-05-07 15:03 38.72451 -9.35606 337 ft 14 kts 347°
2026-05-07 15:03 38.72539 -9.35643 348 ft 5 kts 351°
2026-05-07 15:03 38.72580 -9.35656 324 ft 3 kts 350°
2026-05-07 15:04 38.72598 -9.35664 325 ft 1 kts 351°
2026-05-07 15:04 38.72604 -9.35665 317 ft 1 kts 350°
2026-05-07 15:04 38.72604 -9.35666 317 ft 0 kts 354°